sensor_id;sensor_type;location;lat;lon;timestamp;temperature;humidity
24049;DHT22;12250;50.956;4.746;2022-12-29T00:02:08;12.10;99.90
24049;DHT22;12250;50.956;4.746;2022-12-29T00:04:33;12.10;99.90
24049;DHT22;12250;50.956;4.746;2022-12-29T00:06:59;12.10;99.90
24049;DHT22;12250;50.956;4.746;2022-12-29T00:09:25;12.00;99.90
24049;DHT22;12250;50.956;4.746;2022-12-29T00:11:51;12.00;99.90
24049;DHT22;12250;50.956;4.746;2022-12-29T00:14:17;12.00;99.90
24049;DHT22;12250;50.956;4.746;2022-12-29T00:17:01;12.10;99.90
24049;DHT22;12250;50.956;4.746;2022-12-29T00:19:27;12.00;99.90
24049;DHT22;12250;50.956;4.746;2022-12-29T00:22:13;12.10;99.90
24049;DHT22;12250;50.956;4.746;2022-12-29T00:24:58;12.10;99.90
24049;DHT22;12250;50.956;4.746;2022-12-29T00:27:42;12.10;99.90
24049;DHT22;12250;50.956;4.746;2022-12-29T00:30:26;12.10;99.90
24049;DHT22;12250;50.956;4.746;2022-12-29T00:33:12;12.10;99.90
24049;DHT22;12250;50.956;4.746;2022-12-29T00:38:44;12.00;99.90
24049;DHT22;12250;50.956;4.746;2022-12-29T00:41:29;12.10;99.90
24049;DHT22;12250;50.956;4.746;2022-12-29T00:44:13;12.10;99.90
24049;DHT22;12250;50.956;4.746;2022-12-29T00:46:41;12.20;99.90
24049;DHT22;12250;50.956;4.746;2022-12-29T00:49:09;12.30;99.90
24049;DHT22;12250;50.956;4.746;2022-12-29T00:51:54;12.30;99.90
24049;DHT22;12250;50.956;4.746;2022-12-29T00:54:21;12.30;99.90
24049;DHT22;12250;50.956;4.746;2022-12-29T00:56:50;12.30;99.90
24049;DHT22;12250;50.956;4.746;2022-12-29T00:59:17;12.40;99.90
24049;DHT22;12250;50.956;4.746;2022-12-29T01:01:43;12.50;99.90
24049;DHT22;12250;50.956;4.746;2022-12-29T01:04:10;12.50;99.90
24049;DHT22;12250;50.956;4.746;2022-12-29T01:06:38;12.50;99.90
24049;DHT22;12250;50.956;4.746;2022-12-29T01:09:05;12.50;99.90
24049;DHT22;12250;50.956;4.746;2022-12-29T01:11:50;12.60;99.90
24049;DHT22;12250;50.956;4.746;2022-12-29T01:14:16;12.60;99.90
24049;DHT22;12250;50.956;4.746;2022-12-29T01:16:42;12.70;99.90
24049;DHT22;12250;50.956;4.746;2022-12-29T01:19:08;12.70;99.90
24049;DHT22;12250;50.956;4.746;2022-12-29T01:21:33;12.60;99.90
24049;DHT22;12250;50.956;4.746;2022-12-29T01:23:59;12.60;99.90
24049;DHT22;12250;50.956;4.746;2022-12-29T01:26:25;12.60;99.90
24049;DHT22;12250;50.956;4.746;2022-12-29T01:28:50;12.60;99.90
24049;DHT22;12250;50.956;4.746;2022-12-29T01:31:16;12.60;99.90
24049;DHT22;12250;50.956;4.746;2022-12-29T01:33:43;12.50;99.90
24049;DHT22;12250;50.956;4.746;2022-12-29T01:36:14;12.30;99.90
24049;DHT22;12250;50.956;4.746;2022-12-29T01:38:41;12.20;99.90
24049;DHT22;12250;50.956;4.746;2022-12-29T01:41:08;12.20;99.90
24049;DHT22;12250;50.956;4.746;2022-12-29T01:51:36;12.00;99.90
24049;DHT22;12250;50.956;4.746;2022-12-29T01:54:07;12.00;99.90
24049;DHT22;12250;50.956;4.746;2022-12-29T01:56:35;11.90;99.90
24049;DHT22;12250;50.956;4.746;2022-12-29T01:59:04;11.80;99.90
24049;DHT22;12250;50.956;4.746;2022-12-29T02:01:32;11.80;99.90
24049;DHT22;12250;50.956;4.746;2022-12-29T02:03:58;11.80;99.90
24049;DHT22;12250;50.956;4.746;2022-12-29T02:06:38;11.70;99.90
24049;DHT22;12250;50.956;4.746;2022-12-29T02:09:06;11.70;99.90
24049;DHT22;12250;50.956;4.746;2022-12-29T02:11:32;11.60;99.90
24049;DHT22;12250;50.956;4.746;2022-12-29T02:14:00;11.70;99.90
24049;DHT22;12250;50.956;4.746;2022-12-29T02:24:52;11.70;99.90
24049;DHT22;12250;50.956;4.746;2022-12-29T02:27:48;11.50;99.90
24049;DHT22;12250;50.956;4.746;2022-12-29T02:33:30;11.40;99.90
24049;DHT22;12250;50.956;4.746;2022-12-29T02:36:24;11.30;99.90
24049;DHT22;12250;50.956;4.746;2022-12-29T02:50:08;11.10;99.90
24049;DHT22;12250;50.956;4.746;2022-12-29T02:52:44;11.00;99.90
24049;DHT22;12250;50.956;4.746;2022-12-29T02:55:12;11.00;99.90
24049;DHT22;12250;50.956;4.746;2022-12-29T02:57:37;10.90;99.90
24049;DHT22;12250;50.956;4.746;2022-12-29T03:06:01;10.70;99.90
24049;DHT22;12250;50.956;4.746;2022-12-29T03:11:11;10.60;99.90
24049;DHT22;12250;50.956;4.746;2022-12-29T03:20:13;10.50;99.90
24049;DHT22;12250;50.956;4.746;2022-12-29T03:22:44;10.50;99.90
24049;DHT22;12250;50.956;4.746;2022-12-29T03:25:15;10.50;99.90
24049;DHT22;12250;50.956;4.746;2022-12-29T03:27:57;10.50;99.90
24049;DHT22;12250;50.956;4.746;2022-12-29T03:30:24;10.50;99.90
24049;DHT22;12250;50.956;4.746;2022-12-29T03:33:00;10.40;99.90
24049;DHT22;12250;50.956;4.746;2022-12-29T03:35:30;10.40;99.90
24049;DHT22;12250;50.956;4.746;2022-12-29T03:38:08;10.30;99.90
24049;DHT22;12250;50.956;4.746;2022-12-29T03:40:38;10.20;99.90
24049;DHT22;12250;50.956;4.746;2022-12-29T03:43:05;10.30;99.90
24049;DHT22;12250;50.956;4.746;2022-12-29T03:45:31;10.20;99.90
24049;DHT22;12250;50.956;4.746;2022-12-29T03:47:56;10.30;99.90
24049;DHT22;12250;50.956;4.746;2022-12-29T03:50:22;10.20;99.90
24049;DHT22;12250;50.956;4.746;2022-12-29T03:52:48;10.10;99.90
24049;DHT22;12250;50.956;4.746;2022-12-29T03:55:13;10.10;99.90
24049;DHT22;12250;50.956;4.746;2022-12-29T03:57:39;10.10;99.90
24049;DHT22;12250;50.956;4.746;2022-12-29T04:00:06;10.10;99.90
24049;DHT22;12250;50.956;4.746;2022-12-29T04:02:32;10.00;99.90
24049;DHT22;12250;50.956;4.746;2022-12-29T04:04:57;10.10;99.90
24049;DHT22;12250;50.956;4.746;2022-12-29T04:07:23;10.10;99.90
24049;DHT22;12250;50.956;4.746;2022-12-29T04:09:49;10.00;99.90
24049;DHT22;12250;50.956;4.746;2022-12-29T04:12:14;10.10;99.90
24049;DHT22;12250;50.956;4.746;2022-12-29T04:14:40;10.10;99.90
24049;DHT22;12250;50.956;4.746;2022-12-29T04:17:06;10.10;99.90
24049;DHT22;12250;50.956;4.746;2022-12-29T04:19:32;10.10;99.90
24049;DHT22;12250;50.956;4.746;2022-12-29T04:21:58;10.20;99.90
24049;DHT22;12250;50.956;4.746;2022-12-29T04:24:23;10.10;99.90
24049;DHT22;12250;50.956;4.746;2022-12-29T04:26:49;10.10;99.90
24049;DHT22;12250;50.956;4.746;2022-12-29T04:29:15;10.00;99.90
24049;DHT22;12250;50.956;4.746;2022-12-29T04:31:40;10.00;99.90
24049;DHT22;12250;50.956;4.746;2022-12-29T04:34:06;9.90;99.90
24049;DHT22;12250;50.956;4.746;2022-12-29T04:36:32;9.90;99.90
24049;DHT22;12250;50.956;4.746;2022-12-29T04:38:58;9.80;99.90
24049;DHT22;12250;50.956;4.746;2022-12-29T04:41:23;9.80;99.90
24049;DHT22;12250;50.956;4.746;2022-12-29T04:43:49;9.70;99.90
24049;DHT22;12250;50.956;4.746;2022-12-29T04:46:15;9.70;99.90
24049;DHT22;12250;50.956;4.746;2022-12-29T04:48:40;9.70;99.90
24049;DHT22;12250;50.956;4.746;2022-12-29T04:51:06;9.70;99.90
24049;DHT22;12250;50.956;4.746;2022-12-29T04:53:32;9.70;99.90
24049;DHT22;12250;50.956;4.746;2022-12-29T04:55:57;9.80;99.90
24049;DHT22;12250;50.956;4.746;2022-12-29T04:58:23;9.90;99.90
24049;DHT22;12250;50.956;4.746;2022-12-29T05:00:50;9.90;99.90
24049;DHT22;12250;50.956;4.746;2022-12-29T05:03:16;10.00;99.90
24049;DHT22;12250;50.956;4.746;2022-12-29T05:05:41;10.10;99.90
24049;DHT22;12250;50.956;4.746;2022-12-29T05:08:07;10.10;99.90
24049;DHT22;12250;50.956;4.746;2022-12-29T05:10:33;10.20;99.90
24049;DHT22;12250;50.956;4.746;2022-12-29T05:12:58;10.30;99.90
24049;DHT22;12250;50.956;4.746;2022-12-29T05:15:24;10.30;99.90
24049;DHT22;12250;50.956;4.746;2022-12-29T05:17:49;10.50;99.90
24049;DHT22;12250;50.956;4.746;2022-12-29T05:20:15;10.50;99.90
24049;DHT22;12250;50.956;4.746;2022-12-29T05:22:41;10.60;99.90
24049;DHT22;12250;50.956;4.746;2022-12-29T05:25:07;10.60;99.90
24049;DHT22;12250;50.956;4.746;2022-12-29T05:27:33;10.60;99.90
24049;DHT22;12250;50.956;4.746;2022-12-29T05:29:58;10.60;99.90
24049;DHT22;12250;50.956;4.746;2022-12-29T05:32:24;10.60;99.90
24049;DHT22;12250;50.956;4.746;2022-12-29T05:34:50;10.60;99.90
24049;DHT22;12250;50.956;4.746;2022-12-29T05:37:16;10.50;99.90
24049;DHT22;12250;50.956;4.746;2022-12-29T05:39:41;10.60;99.90
24049;DHT22;12250;50.956;4.746;2022-12-29T05:42:07;10.60;99.90
24049;DHT22;12250;50.956;4.746;2022-12-29T05:44:32;10.60;99.90
24049;DHT22;12250;50.956;4.746;2022-12-29T05:46:58;10.60;99.90
24049;DHT22;12250;50.956;4.746;2022-12-29T05:49:24;10.70;99.90
24049;DHT22;12250;50.956;4.746;2022-12-29T05:51:49;10.80;99.90
24049;DHT22;12250;50.956;4.746;2022-12-29T05:54:15;10.80;99.90
24049;DHT22;12250;50.956;4.746;2022-12-29T05:56:41;10.70;99.90
24049;DHT22;12250;50.956;4.746;2022-12-29T05:59:06;10.80;99.90
24049;DHT22;12250;50.956;4.746;2022-12-29T06:01:32;10.80;99.90
24049;DHT22;12250;50.956;4.746;2022-12-29T06:03:59;10.90;99.90
24049;DHT22;12250;50.956;4.746;2022-12-29T06:06:25;10.90;99.90
24049;DHT22;12250;50.956;4.746;2022-12-29T06:08:51;10.90;99.90
24049;DHT22;12250;50.956;4.746;2022-12-29T06:11:16;10.90;99.90
24049;DHT22;12250;50.956;4.746;2022-12-29T06:13:42;10.90;99.90
24049;DHT22;12250;50.956;4.746;2022-12-29T06:16:08;10.80;99.90
24049;DHT22;12250;50.956;4.746;2022-12-29T06:18:34;10.70;99.90
24049;DHT22;12250;50.956;4.746;2022-12-29T06:21:01;10.70;99.90
24049;DHT22;12250;50.956;4.746;2022-12-29T06:23:27;10.50;99.90
24049;DHT22;12250;50.956;4.746;2022-12-29T06:25:52;10.50;99.90
24049;DHT22;12250;50.956;4.746;2022-12-29T06:28:18;10.60;99.90
24049;DHT22;12250;50.956;4.746;2022-12-29T06:30:45;10.60;99.90
24049;DHT22;12250;50.956;4.746;2022-12-29T06:33:11;10.50;99.90
24049;DHT22;12250;50.956;4.746;2022-12-29T06:35:37;10.60;99.90
24049;DHT22;12250;50.956;4.746;2022-12-29T06:38:03;10.60;99.90
24049;DHT22;12250;50.956;4.746;2022-12-29T06:40:29;10.60;99.90
24049;DHT22;12250;50.956;4.746;2022-12-29T06:42:55;10.50;99.90
24049;DHT22;12250;50.956;4.746;2022-12-29T06:45:20;10.50;99.90
24049;DHT22;12250;50.956;4.746;2022-12-29T06:47:46;10.40;99.90
24049;DHT22;12250;50.956;4.746;2022-12-29T06:50:12;10.40;99.90
24049;DHT22;12250;50.956;4.746;2022-12-29T06:52:37;10.30;99.90
24049;DHT22;12250;50.956;4.746;2022-12-29T06:55:03;10.40;99.90
24049;DHT22;12250;50.956;4.746;2022-12-29T06:57:29;10.40;99.90
24049;DHT22;12250;50.956;4.746;2022-12-29T06:59:55;10.50;99.90
24049;DHT22;12250;50.956;4.746;2022-12-29T07:02:21;10.70;99.90
24049;DHT22;12250;50.956;4.746;2022-12-29T07:04:47;10.80;99.90
24049;DHT22;12250;50.956;4.746;2022-12-29T07:07:13;10.90;99.90
24049;DHT22;12250;50.956;4.746;2022-12-29T07:09:38;10.90;99.90
24049;DHT22;12250;50.956;4.746;2022-12-29T07:12:04;11.00;99.90
24049;DHT22;12250;50.956;4.746;2022-12-29T07:14:30;11.00;99.90
24049;DHT22;12250;50.956;4.746;2022-12-29T07:16:56;11.10;99.90
24049;DHT22;12250;50.956;4.746;2022-12-29T07:19:21;11.10;99.90
24049;DHT22;12250;50.956;4.746;2022-12-29T07:21:47;11.00;99.90
24049;DHT22;12250;50.956;4.746;2022-12-29T07:24:12;11.00;99.90
24049;DHT22;12250;50.956;4.746;2022-12-29T07:26:38;11.00;99.90
24049;DHT22;12250;50.956;4.746;2022-12-29T07:29:04;11.00;99.90
24049;DHT22;12250;50.956;4.746;2022-12-29T07:31:30;10.90;99.90
24049;DHT22;12250;50.956;4.746;2022-12-29T07:33:56;10.80;99.90
24049;DHT22;12250;50.956;4.746;2022-12-29T07:36:21;10.70;99.90
24049;DHT22;12250;50.956;4.746;2022-12-29T07:38:47;10.80;99.90
24049;DHT22;12250;50.956;4.746;2022-12-29T07:41:13;10.90;99.90
24049;DHT22;12250;50.956;4.746;2022-12-29T07:43:38;11.00;99.90
24049;DHT22;12250;50.956;4.746;2022-12-29T07:46:04;11.00;99.90
24049;DHT22;12250;50.956;4.746;2022-12-29T07:48:30;11.10;99.90
24049;DHT22;12250;50.956;4.746;2022-12-29T07:50:55;11.10;99.90
24049;DHT22;12250;50.956;4.746;2022-12-29T07:53:22;11.10;99.90
24049;DHT22;12250;50.956;4.746;2022-12-29T07:55:47;11.10;99.90
24049;DHT22;12250;50.956;4.746;2022-12-29T07:58:13;11.30;99.90
24049;DHT22;12250;50.956;4.746;2022-12-29T08:00:39;11.40;99.90
24049;DHT22;12250;50.956;4.746;2022-12-29T08:03:05;11.40;99.90
24049;DHT22;12250;50.956;4.746;2022-12-29T08:05:32;11.30;99.90
24049;DHT22;12250;50.956;4.746;2022-12-29T08:07:58;11.20;99.90
24049;DHT22;12250;50.956;4.746;2022-12-29T08:10:24;11.20;99.90
24049;DHT22;12250;50.956;4.746;2022-12-29T08:12:49;11.30;99.90
24049;DHT22;12250;50.956;4.746;2022-12-29T08:15:15;11.30;99.90
24049;DHT22;12250;50.956;4.746;2022-12-29T08:17:41;11.30;99.90
24049;DHT22;12250;50.956;4.746;2022-12-29T08:20:07;11.40;99.90
24049;DHT22;12250;50.956;4.746;2022-12-29T08:22:33;11.50;99.90
24049;DHT22;12250;50.956;4.746;2022-12-29T08:24:58;11.60;99.90
24049;DHT22;12250;50.956;4.746;2022-12-29T08:27:24;11.60;99.90
24049;DHT22;12250;50.956;4.746;2022-12-29T08:29:50;11.70;99.90
24049;DHT22;12250;50.956;4.746;2022-12-29T08:32:16;11.60;99.90
24049;DHT22;12250;50.956;4.746;2022-12-29T08:34:41;11.60;99.90
24049;DHT22;12250;50.956;4.746;2022-12-29T08:37:07;11.60;99.90
24049;DHT22;12250;50.956;4.746;2022-12-29T08:39:33;11.60;99.90
24049;DHT22;12250;50.956;4.746;2022-12-29T08:41:59;11.60;99.90
24049;DHT22;12250;50.956;4.746;2022-12-29T08:44:24;11.70;99.90
24049;DHT22;12250;50.956;4.746;2022-12-29T08:46:50;11.70;99.90
24049;DHT22;12250;50.956;4.746;2022-12-29T08:49:15;11.70;99.90
24049;DHT22;12250;50.956;4.746;2022-12-29T08:51:41;11.60;99.90
24049;DHT22;12250;50.956;4.746;2022-12-29T08:54:06;11.70;99.90
24049;DHT22;12250;50.956;4.746;2022-12-29T08:56:32;11.50;99.90
24049;DHT22;12250;50.956;4.746;2022-12-29T08:58:58;11.60;99.90
24049;DHT22;12250;50.956;4.746;2022-12-29T09:01:23;11.70;99.90
24049;DHT22;12250;50.956;4.746;2022-12-29T09:03:49;11.80;99.90
24049;DHT22;12250;50.956;4.746;2022-12-29T09:06:16;11.90;99.90
24049;DHT22;12250;50.956;4.746;2022-12-29T09:08:42;12.00;99.90
24049;DHT22;12250;50.956;4.746;2022-12-29T09:11:18;12.10;99.90
24049;DHT22;12250;50.956;4.746;2022-12-29T09:13:45;12.00;99.90
24049;DHT22;12250;50.956;4.746;2022-12-29T09:16:10;12.10;99.90
24049;DHT22;12250;50.956;4.746;2022-12-29T09:18:43;12.00;99.90
24049;DHT22;12250;50.956;4.746;2022-12-29T09:21:10;11.90;99.90
24049;DHT22;12250;50.956;4.746;2022-12-29T09:23:36;12.00;99.90
24049;DHT22;12250;50.956;4.746;2022-12-29T09:26:02;12.10;99.90
24049;DHT22;12250;50.956;4.746;2022-12-29T09:28:28;12.30;99.90
24049;DHT22;12250;50.956;4.746;2022-12-29T09:30:54;12.30;99.90
24049;DHT22;12250;50.956;4.746;2022-12-29T09:33:20;12.30;99.90
24049;DHT22;12250;50.956;4.746;2022-12-29T09:35:51;12.30;99.90
24049;DHT22;12250;50.956;4.746;2022-12-29T09:38:17;12.40;99.90
24049;DHT22;12250;50.956;4.746;2022-12-29T09:40:48;12.50;99.90
24049;DHT22;12250;50.956;4.746;2022-12-29T09:48:30;12.50;99.90
24049;DHT22;12250;50.956;4.746;2022-12-29T09:51:00;12.40;99.90
24049;DHT22;12250;50.956;4.746;2022-12-29T09:53:57;12.00;99.90
24049;DHT22;12250;50.956;4.746;2022-12-29T09:56:24;11.90;99.90
24049;DHT22;12250;50.956;4.746;2022-12-29T09:59:14;11.80;99.90
24049;DHT22;12250;50.956;4.746;2022-12-29T10:01:53;11.90;99.90
24049;DHT22;12250;50.956;4.746;2022-12-29T10:04:23;12.00;99.90
24049;DHT22;12250;50.956;4.746;2022-12-29T10:07:40;11.90;99.90
24049;DHT22;12250;50.956;4.746;2022-12-29T10:15:57;11.80;99.90
24049;DHT22;12250;50.956;4.746;2022-12-29T10:18:36;12.10;99.90
24049;DHT22;12250;50.956;4.746;2022-12-29T10:23:49;12.80;99.90
24049;DHT22;12250;50.956;4.746;2022-12-29T10:26:21;13.00;99.90
24049;DHT22;12250;50.956;4.746;2022-12-29T10:29:02;13.20;99.90
24049;DHT22;12250;50.956;4.746;2022-12-29T10:31:43;13.10;99.90
24049;DHT22;12250;50.956;4.746;2022-12-29T10:34:28;13.10;99.90
24049;DHT22;12250;50.956;4.746;2022-12-29T10:37:00;13.00;99.90
24049;DHT22;12250;50.956;4.746;2022-12-29T10:39:32;13.10;99.90
24049;DHT22;12250;50.956;4.746;2022-12-29T10:42:12;13.10;99.90
24049;DHT22;12250;50.956;4.746;2022-12-29T10:44:39;13.10;99.90
24049;DHT22;12250;50.956;4.746;2022-12-29T10:47:14;13.10;99.90
24049;DHT22;12250;50.956;4.746;2022-12-29T10:49:41;13.20;99.90
24049;DHT22;12250;50.956;4.746;2022-12-29T10:52:08;13.20;99.90
24049;DHT22;12250;50.956;4.746;2022-12-29T10:57:41;13.00;99.90
24049;DHT22;12250;50.956;4.746;2022-12-29T11:00:19;13.00;99.90
24049;DHT22;12250;50.956;4.746;2022-12-29T11:08:02;13.20;99.90
24049;DHT22;12250;50.956;4.746;2022-12-29T11:10:38;13.20;99.90
24049;DHT22;12250;50.956;4.746;2022-12-29T11:13:17;13.20;99.90
24049;DHT22;12250;50.956;4.746;2022-12-29T11:15:50;13.20;99.90
24049;DHT22;12250;50.956;4.746;2022-12-29T11:18:25;13.30;99.90
24049;DHT22;12250;50.956;4.746;2022-12-29T11:20:57;13.50;99.90
24049;DHT22;12250;50.956;4.746;2022-12-29T11:23:39;13.50;99.90
24049;DHT22;12250;50.956;4.746;2022-12-29T11:26:21;13.40;99.90
24049;DHT22;12250;50.956;4.746;2022-12-29T11:31:46;13.60;99.90
24049;DHT22;12250;50.956;4.746;2022-12-29T11:34:32;13.60;99.90
24049;DHT22;12250;50.956;4.746;2022-12-29T11:39:34;13.70;99.90
24049;DHT22;12250;50.956;4.746;2022-12-29T11:42:02;13.90;99.90
24049;DHT22;12250;50.956;4.746;2022-12-29T11:44:36;13.90;99.90
24049;DHT22;12250;50.956;4.746;2022-12-29T11:47:04;14.00;99.90
24049;DHT22;12250;50.956;4.746;2022-12-29T11:49:31;14.10;99.90
24049;DHT22;12250;50.956;4.746;2022-12-29T11:51:56;14.30;99.90
24049;DHT22;12250;50.956;4.746;2022-12-29T11:54:33;14.30;99.90
24049;DHT22;12250;50.956;4.746;2022-12-29T11:57:13;14.30;99.90
24049;DHT22;12250;50.956;4.746;2022-12-29T11:59:55;14.20;99.90
24049;DHT22;12250;50.956;4.746;2022-12-29T12:02:35;14.00;99.90
24049;DHT22;12250;50.956;4.746;2022-12-29T12:08:07;13.50;99.90
24049;DHT22;12250;50.956;4.746;2022-12-29T12:10:46;13.30;99.90
24049;DHT22;12250;50.956;4.746;2022-12-29T12:16:22;13.00;99.90
24049;DHT22;12250;50.956;4.746;2022-12-29T12:18:53;12.90;99.90
24049;DHT22;12250;50.956;4.746;2022-12-29T12:21:39;12.90;99.90
24049;DHT22;12250;50.956;4.746;2022-12-29T12:24:28;12.90;99.90
24049;DHT22;12250;50.956;4.746;2022-12-29T12:29:49;12.80;99.90
24049;DHT22;12250;50.956;4.746;2022-12-29T12:32:45;12.80;99.90
24049;DHT22;12250;50.956;4.746;2022-12-29T12:38:16;12.50;99.90
24049;DHT22;12250;50.956;4.746;2022-12-29T12:44:12;12.50;99.90
24049;DHT22;12250;50.956;4.746;2022-12-29T12:46:57;12.60;99.90
24049;DHT22;12250;50.956;4.746;2022-12-29T12:49:35;12.50;99.90
24049;DHT22;12250;50.956;4.746;2022-12-29T13:00:25;12.30;99.90
24049;DHT22;12250;50.956;4.746;2022-12-29T13:03:22;12.50;99.90
24049;DHT22;12250;50.956;4.746;2022-12-29T13:16:29;12.80;99.90
24049;DHT22;12250;50.956;4.746;2022-12-29T13:19:14;12.70;99.90
24049;DHT22;12250;50.956;4.746;2022-12-29T13:30:09;12.40;99.90
24049;DHT22;12250;50.956;4.746;2022-12-29T13:38:17;12.30;99.90
24049;DHT22;12250;50.956;4.746;2022-12-29T13:40:50;12.20;99.90
24049;DHT22;12250;50.956;4.746;2022-12-29T13:43:18;12.10;99.90
24049;DHT22;12250;50.956;4.746;2022-12-29T13:45:55;12.10;99.90
24049;DHT22;12250;50.956;4.746;2022-12-29T13:48:28;12.20;99.90
24049;DHT22;12250;50.956;4.746;2022-12-29T13:50:57;12.30;99.90
24049;DHT22;12250;50.956;4.746;2022-12-29T13:53:55;12.40;99.90
24049;DHT22;12250;50.956;4.746;2022-12-29T13:56:47;12.40;99.90
24049;DHT22;12250;50.956;4.746;2022-12-29T14:04:24;12.20;99.90
24049;DHT22;12250;50.956;4.746;2022-12-29T14:07:06;12.10;99.90
24049;DHT22;12250;50.956;4.746;2022-12-29T14:12:39;11.80;99.90
24049;DHT22;12250;50.956;4.746;2022-12-29T14:17:34;11.60;99.90
24049;DHT22;12250;50.956;4.746;2022-12-29T14:20:01;11.50;99.90
24049;DHT22;12250;50.956;4.746;2022-12-29T14:22:28;11.40;99.90
24049;DHT22;12250;50.956;4.746;2022-12-29T14:24:54;11.40;99.90
24049;DHT22;12250;50.956;4.746;2022-12-29T14:29:48;11.30;99.90
24049;DHT22;12250;50.956;4.746;2022-12-29T14:34:59;11.30;99.90
24049;DHT22;12250;50.956;4.746;2022-12-29T14:37:31;11.40;99.90
24049;DHT22;12250;50.956;4.746;2022-12-29T14:40:23;11.50;99.90
24049;DHT22;12250;50.956;4.746;2022-12-29T14:42:53;11.70;99.90
24049;DHT22;12250;50.956;4.746;2022-12-29T14:47:51;11.80;99.90
24049;DHT22;12250;50.956;4.746;2022-12-29T14:50:25;11.80;99.90
24049;DHT22;12250;50.956;4.746;2022-12-29T14:52:57;11.90;99.90
24049;DHT22;12250;50.956;4.746;2022-12-29T14:56:00;11.90;99.90
24049;DHT22;12250;50.956;4.746;2022-12-29T14:58:28;11.80;99.90
24049;DHT22;12250;50.956;4.746;2022-12-29T15:00:56;11.80;99.90
24049;DHT22;12250;50.956;4.746;2022-12-29T15:03:42;11.60;99.90
24049;DHT22;12250;50.956;4.746;2022-12-29T15:06:11;11.10;99.90
24049;DHT22;12250;50.956;4.746;2022-12-29T15:08:46;10.60;99.90
24049;DHT22;12250;50.956;4.746;2022-12-29T15:11:14;10.20;99.90
24049;DHT22;12250;50.956;4.746;2022-12-29T15:13:42;9.70;99.90
24049;DHT22;12250;50.956;4.746;2022-12-29T15:16:25;9.50;99.90
24049;DHT22;12250;50.956;4.746;2022-12-29T15:18:52;9.40;99.90
24049;DHT22;12250;50.956;4.746;2022-12-29T15:21:24;9.30;99.90
24049;DHT22;12250;50.956;4.746;2022-12-29T15:23:51;9.10;99.90
24049;DHT22;12250;50.956;4.746;2022-12-29T15:26:17;9.10;99.90
24049;DHT22;12250;50.956;4.746;2022-12-29T15:28:49;9.10;99.90
24049;DHT22;12250;50.956;4.746;2022-12-29T15:31:18;9.10;99.90
24049;DHT22;12250;50.956;4.746;2022-12-29T15:33:47;9.10;99.90
24049;DHT22;12250;50.956;4.746;2022-12-29T15:36:18;9.00;99.90
24049;DHT22;12250;50.956;4.746;2022-12-29T15:38:45;9.00;99.90
24049;DHT22;12250;50.956;4.746;2022-12-29T15:46:21;8.90;99.90
24049;DHT22;12250;50.956;4.746;2022-12-29T15:48:47;8.70;99.90
24049;DHT22;12250;50.956;4.746;2022-12-29T15:51:30;8.60;99.90
24049;DHT22;12250;50.956;4.746;2022-12-29T15:53:59;8.50;99.90
24049;DHT22;12250;50.956;4.746;2022-12-29T15:56:28;8.40;99.90
24049;DHT22;12250;50.956;4.746;2022-12-29T15:58:54;8.30;99.90
24049;DHT22;12250;50.956;4.746;2022-12-29T16:01:30;8.30;99.90
24049;DHT22;12250;50.956;4.746;2022-12-29T16:03:58;8.30;99.90
24049;DHT22;12250;50.956;4.746;2022-12-29T16:06:36;8.20;99.90
24049;DHT22;12250;50.956;4.746;2022-12-29T16:09:19;8.20;99.90
24049;DHT22;12250;50.956;4.746;2022-12-29T16:11:55;8.20;99.90
24049;DHT22;12250;50.956;4.746;2022-12-29T16:14:31;8.30;99.90
24049;DHT22;12250;50.956;4.746;2022-12-29T16:17:00;8.40;99.90
24049;DHT22;12250;50.956;4.746;2022-12-29T16:19:36;8.50;99.90
24049;DHT22;12250;50.956;4.746;2022-12-29T16:22:03;8.50;99.90
24049;DHT22;12250;50.956;4.746;2022-12-29T16:24:37;8.50;99.90
24049;DHT22;12250;50.956;4.746;2022-12-29T16:27:08;8.30;99.90
24049;DHT22;12250;50.956;4.746;2022-12-29T16:29:35;8.30;99.90
24049;DHT22;12250;50.956;4.746;2022-12-29T16:32:02;8.30;99.90
24049;DHT22;12250;50.956;4.746;2022-12-29T16:34:46;8.20;99.90
24049;DHT22;12250;50.956;4.746;2022-12-29T16:37:34;8.10;99.90
24049;DHT22;12250;50.956;4.746;2022-12-29T16:42:46;7.80;99.90
24049;DHT22;12250;50.956;4.746;2022-12-29T16:50:18;7.80;99.90
24049;DHT22;12250;50.956;4.746;2022-12-29T16:52:49;7.80;99.90
24049;DHT22;12250;50.956;4.746;2022-12-29T16:55:17;7.80;99.90
24049;DHT22;12250;50.956;4.746;2022-12-29T16:57:44;7.70;99.90
24049;DHT22;12250;50.956;4.746;2022-12-29T17:00:21;7.60;99.90
24049;DHT22;12250;50.956;4.746;2022-12-29T17:02:49;7.60;99.90
24049;DHT22;12250;50.956;4.746;2022-12-29T17:05:17;7.60;99.90
24049;DHT22;12250;50.956;4.746;2022-12-29T17:07:43;7.50;99.90
24049;DHT22;12250;50.956;4.746;2022-12-29T17:10:10;7.50;99.90
24049;DHT22;12250;50.956;4.746;2022-12-29T17:12:36;7.40;99.90
24049;DHT22;12250;50.956;4.746;2022-12-29T17:15:05;7.30;99.90
24049;DHT22;12250;50.956;4.746;2022-12-29T17:17:43;7.30;99.90
24049;DHT22;12250;50.956;4.746;2022-12-29T17:20:23;7.20;99.90
24049;DHT22;12250;50.956;4.746;2022-12-29T17:22:51;7.20;99.90
24049;DHT22;12250;50.956;4.746;2022-12-29T17:25:30;7.20;99.90
24049;DHT22;12250;50.956;4.746;2022-12-29T17:28:02;7.20;99.90
24049;DHT22;12250;50.956;4.746;2022-12-29T17:30:31;7.10;99.90
24049;DHT22;12250;50.956;4.746;2022-12-29T17:33:00;7.10;99.90
24049;DHT22;12250;50.956;4.746;2022-12-29T17:35:27;7.10;99.90
24049;DHT22;12250;50.956;4.746;2022-12-29T17:37:53;7.10;99.90
24049;DHT22;12250;50.956;4.746;2022-12-29T17:40:24;7.10;99.90
24049;DHT22;12250;50.956;4.746;2022-12-29T17:42:55;7.20;99.90
24049;DHT22;12250;50.956;4.746;2022-12-29T17:45:29;7.40;99.90
24049;DHT22;12250;50.956;4.746;2022-12-29T17:47:56;7.40;99.90
24049;DHT22;12250;50.956;4.746;2022-12-29T17:50:25;7.40;99.90
24049;DHT22;12250;50.956;4.746;2022-12-29T17:53:13;7.40;99.90
24049;DHT22;12250;50.956;4.746;2022-12-29T17:55:39;7.40;99.90
24049;DHT22;12250;50.956;4.746;2022-12-29T17:58:25;7.40;99.90
24049;DHT22;12250;50.956;4.746;2022-12-29T18:01:01;7.40;99.90
24049;DHT22;12250;50.956;4.746;2022-12-29T18:03:32;7.40;99.90
24049;DHT22;12250;50.956;4.746;2022-12-29T18:05:58;7.40;99.90
24049;DHT22;12250;50.956;4.746;2022-12-29T18:08:23;7.50;99.90
24049;DHT22;12250;50.956;4.746;2022-12-29T18:10:53;7.50;99.90
24049;DHT22;12250;50.956;4.746;2022-12-29T18:13:28;7.40;99.90
24049;DHT22;12250;50.956;4.746;2022-12-29T18:15:55;7.40;99.90
24049;DHT22;12250;50.956;4.746;2022-12-29T18:18:23;7.50;99.90
24049;DHT22;12250;50.956;4.746;2022-12-29T18:20:52;7.40;99.90
24049;DHT22;12250;50.956;4.746;2022-12-29T18:23:29;7.40;99.90
24049;DHT22;12250;50.956;4.746;2022-12-29T18:26:02;7.40;99.90
24049;DHT22;12250;50.956;4.746;2022-12-29T18:28:28;7.50;99.90
24049;DHT22;12250;50.956;4.746;2022-12-29T18:30:59;7.40;99.90